sensor_id;sensor_type;location;lat;lon;timestamp;temperature;humidity
2190;DHT22;1101;51.056;7.262;2023-07-13T00:01:05;17.40;69.20
2190;DHT22;1101;51.056;7.262;2023-07-13T00:03:33;17.30;69.20
2190;DHT22;1101;51.056;7.262;2023-07-13T00:06:02;17.30;69.40
2190;DHT22;1101;51.056;7.262;2023-07-13T00:08:31;17.20;69.40
2190;DHT22;1101;51.056;7.262;2023-07-13T00:11:01;17.20;69.40
2190;DHT22;1101;51.056;7.262;2023-07-13T00:13:29;17.20;69.50
2190;DHT22;1101;51.056;7.262;2023-07-13T00:15:58;17.10;69.40
2190;DHT22;1101;51.056;7.262;2023-07-13T00:18:27;17.00;69.50
2190;DHT22;1101;51.056;7.262;2023-07-13T00:20:56;17.00;69.50
2190;DHT22;1101;51.056;7.262;2023-07-13T00:23:32;16.90;69.60
2190;DHT22;1101;51.056;7.262;2023-07-13T00:26:01;16.90;69.60
2190;DHT22;1101;51.056;7.262;2023-07-13T00:28:29;16.80;69.50
2190;DHT22;1101;51.056;7.262;2023-07-13T00:30:57;16.80;69.60
2190;DHT22;1101;51.056;7.262;2023-07-13T00:33:25;16.70;69.60
2190;DHT22;1101;51.056;7.262;2023-07-13T00:35:54;16.70;69.70
2190;DHT22;1101;51.056;7.262;2023-07-13T00:38:23;16.60;69.60
2190;DHT22;1101;51.056;7.262;2023-07-13T00:40:52;16.60;69.80
2190;DHT22;1101;51.056;7.262;2023-07-13T00:43:22;16.50;69.80
2190;DHT22;1101;51.056;7.262;2023-07-13T00:46:23;16.50;70.00
2190;DHT22;1101;51.056;7.262;2023-07-13T00:48:52;16.40;70.00
2190;DHT22;1101;51.056;7.262;2023-07-13T00:51:27;16.30;70.00
2190;DHT22;1101;51.056;7.262;2023-07-13T00:53:59;16.20;70.00
2190;DHT22;1101;51.056;7.262;2023-07-13T00:56:28;16.20;70.20
2190;DHT22;1101;51.056;7.262;2023-07-13T00:58:57;16.20;70.30
2190;DHT22;1101;51.056;7.262;2023-07-13T01:01:27;16.20;70.40
2190;DHT22;1101;51.056;7.262;2023-07-13T01:03:55;16.10;70.30
2190;DHT22;1101;51.056;7.262;2023-07-13T01:06:23;16.10;70.50
2190;DHT22;1101;51.056;7.262;2023-07-13T01:08:51;16.00;70.50
2190;DHT22;1101;51.056;7.262;2023-07-13T01:11:49;16.00;70.50
2190;DHT22;1101;51.056;7.262;2023-07-13T01:14:17;15.90;70.40
2190;DHT22;1101;51.056;7.262;2023-07-13T01:16:45;15.90;70.60
2190;DHT22;1101;51.056;7.262;2023-07-13T01:19:26;15.90;70.80
2190;DHT22;1101;51.056;7.262;2023-07-13T01:22:04;15.80;70.80
2190;DHT22;1101;51.056;7.262;2023-07-13T01:24:35;15.80;71.00
2190;DHT22;1101;51.056;7.262;2023-07-13T01:27:05;15.70;71.10
2190;DHT22;1101;51.056;7.262;2023-07-13T01:29:34;15.70;71.20
2190;DHT22;1101;51.056;7.262;2023-07-13T01:32:10;15.60;71.10
2190;DHT22;1101;51.056;7.262;2023-07-13T01:34:38;15.60;71.30
2190;DHT22;1101;51.056;7.262;2023-07-13T01:37:11;15.50;71.30
2190;DHT22;1101;51.056;7.262;2023-07-13T01:39:39;15.50;71.30
2190;DHT22;1101;51.056;7.262;2023-07-13T01:42:07;15.50;71.50
2190;DHT22;1101;51.056;7.262;2023-07-13T01:44:35;15.40;71.50
2190;DHT22;1101;51.056;7.262;2023-07-13T01:47:03;15.40;71.60
2190;DHT22;1101;51.056;7.262;2023-07-13T01:49:32;15.40;71.80
2190;DHT22;1101;51.056;7.262;2023-07-13T01:51:59;15.30;71.70
2190;DHT22;1101;51.056;7.262;2023-07-13T01:54:29;15.30;71.80
2190;DHT22;1101;51.056;7.262;2023-07-13T01:56:56;15.20;71.90
2190;DHT22;1101;51.056;7.262;2023-07-13T01:59:24;15.20;72.00
2190;DHT22;1101;51.056;7.262;2023-07-13T02:01:52;15.10;72.00
2190;DHT22;1101;51.056;7.262;2023-07-13T02:04:20;15.10;72.10
2190;DHT22;1101;51.056;7.262;2023-07-13T02:06:48;15.00;72.10
2190;DHT22;1101;51.056;7.262;2023-07-13T02:09:16;15.00;72.30
2190;DHT22;1101;51.056;7.262;2023-07-13T02:11:45;15.00;73.00
2190;DHT22;1101;51.056;7.262;2023-07-13T02:14:13;14.90;72.40
2190;DHT22;1101;51.056;7.262;2023-07-13T02:16:42;14.90;72.40
2190;DHT22;1101;51.056;7.262;2023-07-13T02:19:09;14.90;72.40
2190;DHT22;1101;51.056;7.262;2023-07-13T02:21:37;14.90;73.20
2190;DHT22;1101;51.056;7.262;2023-07-13T02:24:05;14.80;72.50
2190;DHT22;1101;51.056;7.262;2023-07-13T02:26:34;14.80;72.50
2190;DHT22;1101;51.056;7.262;2023-07-13T02:29:03;14.80;72.50
2190;DHT22;1101;51.056;7.262;2023-07-13T02:31:32;14.70;72.60
2190;DHT22;1101;51.056;7.262;2023-07-13T02:33:59;14.60;72.50
2190;DHT22;1101;51.056;7.262;2023-07-13T02:36:27;14.60;72.60
2190;DHT22;1101;51.056;7.262;2023-07-13T02:38:55;14.50;72.70
2190;DHT22;1101;51.056;7.262;2023-07-13T02:41:23;14.50;72.80
2190;DHT22;1101;51.056;7.262;2023-07-13T02:43:51;14.50;72.90
2190;DHT22;1101;51.056;7.262;2023-07-13T02:46:20;14.40;72.90
2190;DHT22;1101;51.056;7.262;2023-07-13T02:48:48;14.40;73.00
2190;DHT22;1101;51.056;7.262;2023-07-13T02:51:15;14.40;73.20
2190;DHT22;1101;51.056;7.262;2023-07-13T02:53:43;14.30;73.10
2190;DHT22;1101;51.056;7.262;2023-07-13T02:56:11;14.30;73.30
2190;DHT22;1101;51.056;7.262;2023-07-13T02:58:43;14.30;73.30
2190;DHT22;1101;51.056;7.262;2023-07-13T03:01:12;14.20;73.20
2190;DHT22;1101;51.056;7.262;2023-07-13T03:03:47;14.20;73.20
2190;DHT22;1101;51.056;7.262;2023-07-13T03:06:16;14.20;73.30
2190;DHT22;1101;51.056;7.262;2023-07-13T03:08:44;14.10;73.40
2190;DHT22;1101;51.056;7.262;2023-07-13T03:11:15;14.10;73.50
2190;DHT22;1101;51.056;7.262;2023-07-13T03:13:43;14.10;73.60
2190;DHT22;1101;51.056;7.262;2023-07-13T03:16:11;14.10;73.80
2190;DHT22;1101;51.056;7.262;2023-07-13T03:18:47;14.10;73.80
2190;DHT22;1101;51.056;7.262;2023-07-13T03:21:16;14.00;73.60
2190;DHT22;1101;51.056;7.262;2023-07-13T03:23:43;14.00;73.60
2190;DHT22;1101;51.056;7.262;2023-07-13T03:26:14;14.00;73.70
2190;DHT22;1101;51.056;7.262;2023-07-13T03:28:42;14.00;73.80
2190;DHT22;1101;51.056;7.262;2023-07-13T03:31:13;14.00;73.80
2190;DHT22;1101;51.056;7.262;2023-07-13T03:33:42;13.90;73.70
2190;DHT22;1101;51.056;7.262;2023-07-13T03:36:14;14.00;73.80
2190;DHT22;1101;51.056;7.262;2023-07-13T03:38:42;13.90;73.70
2190;DHT22;1101;51.056;7.262;2023-07-13T03:41:10;13.90;73.70
2190;DHT22;1101;51.056;7.262;2023-07-13T03:43:38;13.80;73.60
2190;DHT22;1101;51.056;7.262;2023-07-13T03:46:06;13.90;73.90
2190;DHT22;1101;51.056;7.262;2023-07-13T03:48:34;13.80;73.80
2190;DHT22;1101;51.056;7.262;2023-07-13T03:51:02;13.80;73.80
2190;DHT22;1101;51.056;7.262;2023-07-13T03:53:31;13.80;74.00
2190;DHT22;1101;51.056;7.262;2023-07-13T03:55:59;13.70;74.00
2190;DHT22;1101;51.056;7.262;2023-07-13T03:58:30;13.70;74.00
2190;DHT22;1101;51.056;7.262;2023-07-13T04:00:59;13.70;74.00
2190;DHT22;1101;51.056;7.262;2023-07-13T04:03:27;13.70;74.10
2190;DHT22;1101;51.056;7.262;2023-07-13T04:05:55;13.70;74.30
2190;DHT22;1101;51.056;7.262;2023-07-13T04:08:27;13.70;74.20
2190;DHT22;1101;51.056;7.262;2023-07-13T04:10:57;13.70;74.30
2190;DHT22;1101;51.056;7.262;2023-07-13T04:13:25;13.60;74.20
2190;DHT22;1101;51.056;7.262;2023-07-13T04:15:54;13.70;74.40
2190;DHT22;1101;51.056;7.262;2023-07-13T04:18:21;13.70;74.60
2190;DHT22;1101;51.056;7.262;2023-07-13T04:20:50;13.70;74.60
2190;DHT22;1101;51.056;7.262;2023-07-13T04:23:18;13.60;74.40
2190;DHT22;1101;51.056;7.262;2023-07-13T04:25:47;13.70;74.60
2190;DHT22;1101;51.056;7.262;2023-07-13T04:28:17;13.70;74.70
2190;DHT22;1101;51.056;7.262;2023-07-13T04:30:45;13.70;74.70
2190;DHT22;1101;51.056;7.262;2023-07-13T04:33:13;13.70;75.40
2190;DHT22;1101;51.056;7.262;2023-07-13T04:35:40;13.70;74.80
2190;DHT22;1101;51.056;7.262;2023-07-13T04:38:08;13.70;74.80
2190;DHT22;1101;51.056;7.262;2023-07-13T04:40:37;13.70;74.80
2190;DHT22;1101;51.056;7.262;2023-07-13T04:43:05;13.80;75.00
2190;DHT22;1101;51.056;7.262;2023-07-13T04:45:35;13.80;74.90
2190;DHT22;1101;51.056;7.262;2023-07-13T04:48:03;13.80;75.00
2190;DHT22;1101;51.056;7.262;2023-07-13T04:50:31;13.90;75.00
2190;DHT22;1101;51.056;7.262;2023-07-13T04:52:59;13.90;75.00
2190;DHT22;1101;51.056;7.262;2023-07-13T04:55:27;14.00;75.20
2190;DHT22;1101;51.056;7.262;2023-07-13T04:57:57;14.00;75.20
2190;DHT22;1101;51.056;7.262;2023-07-13T05:00:26;14.00;75.10
2190;DHT22;1101;51.056;7.262;2023-07-13T05:02:56;14.10;75.30
2190;DHT22;1101;51.056;7.262;2023-07-13T05:05:25;14.10;76.00
2190;DHT22;1101;51.056;7.262;2023-07-13T05:07:54;14.10;75.40
2190;DHT22;1101;51.056;7.262;2023-07-13T05:10:22;14.20;75.50
2190;DHT22;1101;51.056;7.262;2023-07-13T05:12:51;14.20;75.40
2190;DHT22;1101;51.056;7.262;2023-07-13T05:15:21;14.20;75.50
2190;DHT22;1101;51.056;7.262;2023-07-13T05:17:49;14.30;75.60
2190;DHT22;1101;51.056;7.262;2023-07-13T05:20:19;14.40;76.00
2190;DHT22;1101;51.056;7.262;2023-07-13T05:22:47;14.50;76.10
2190;DHT22;1101;51.056;7.262;2023-07-13T05:25:15;14.50;76.10
2190;DHT22;1101;51.056;7.262;2023-07-13T05:27:43;14.70;76.10
2190;DHT22;1101;51.056;7.262;2023-07-13T05:30:13;14.80;76.00
2190;DHT22;1101;51.056;7.262;2023-07-13T05:32:41;14.80;75.70
2190;DHT22;1101;51.056;7.262;2023-07-13T05:35:09;14.90;75.80
2190;DHT22;1101;51.056;7.262;2023-07-13T05:37:39;15.00;75.60
2190;DHT22;1101;51.056;7.262;2023-07-13T05:40:07;15.10;75.50
2190;DHT22;1101;51.056;7.262;2023-07-13T05:42:35;15.10;75.50
2190;DHT22;1101;51.056;7.262;2023-07-13T05:45:03;15.20;75.40
2190;DHT22;1101;51.056;7.262;2023-07-13T05:47:31;15.20;75.60
2190;DHT22;1101;51.056;7.262;2023-07-13T05:49:59;15.30;75.30
2190;DHT22;1101;51.056;7.262;2023-07-13T05:52:30;15.40;75.30
2190;DHT22;1101;51.056;7.262;2023-07-13T05:55:00;15.50;75.20
2190;DHT22;1101;51.056;7.262;2023-07-13T05:57:27;15.50;75.10
2190;DHT22;1101;51.056;7.262;2023-07-13T05:59:55;15.60;75.00
2190;DHT22;1101;51.056;7.262;2023-07-13T06:02:23;15.70;75.20
2190;DHT22;1101;51.056;7.262;2023-07-13T06:04:52;15.80;75.10
2190;DHT22;1101;51.056;7.262;2023-07-13T06:07:20;15.80;75.10
2190;DHT22;1101;51.056;7.262;2023-07-13T06:09:47;15.90;75.20
2190;DHT22;1101;51.056;7.262;2023-07-13T06:12:17;15.90;75.00
2190;DHT22;1101;51.056;7.262;2023-07-13T06:14:44;16.00;75.90
2190;DHT22;1101;51.056;7.262;2023-07-13T06:17:12;16.00;75.10
2190;DHT22;1101;51.056;7.262;2023-07-13T06:19:40;16.10;75.20
2190;DHT22;1101;51.056;7.262;2023-07-13T06:22:08;16.20;75.40
2190;DHT22;1101;51.056;7.262;2023-07-13T06:24:36;16.20;75.20
2190;DHT22;1101;51.056;7.262;2023-07-13T06:27:04;16.30;75.30
2190;DHT22;1101;51.056;7.262;2023-07-13T06:29:33;16.20;75.60
2190;DHT22;1101;51.056;7.262;2023-07-13T06:32:01;16.20;75.50
2190;DHT22;1101;51.056;7.262;2023-07-13T06:34:29;16.20;75.80
2190;DHT22;1101;51.056;7.262;2023-07-13T06:36:58;16.20;75.70
2190;DHT22;1101;51.056;7.262;2023-07-13T06:39:26;16.20;75.60
2190;DHT22;1101;51.056;7.262;2023-07-13T06:41:53;16.30;75.70
2190;DHT22;1101;51.056;7.262;2023-07-13T06:44:21;16.20;75.60
2190;DHT22;1101;51.056;7.262;2023-07-13T06:46:50;16.30;75.50
2190;DHT22;1101;51.056;7.262;2023-07-13T06:49:18;16.30;75.70
2190;DHT22;1101;51.056;7.262;2023-07-13T06:51:46;16.30;75.30
2190;DHT22;1101;51.056;7.262;2023-07-13T06:54:14;16.30;75.20
2190;DHT22;1101;51.056;7.262;2023-07-13T06:56:42;16.40;75.30
2190;DHT22;1101;51.056;7.262;2023-07-13T06:59:09;16.50;75.40
2190;DHT22;1101;51.056;7.262;2023-07-13T07:01:37;16.40;75.20
2190;DHT22;1101;51.056;7.262;2023-07-13T07:04:09;16.50;75.20
2190;DHT22;1101;51.056;7.262;2023-07-13T07:06:37;16.60;75.30
2190;DHT22;1101;51.056;7.262;2023-07-13T07:09:05;16.60;75.20
2190;DHT22;1101;51.056;7.262;2023-07-13T07:11:32;16.70;75.20
2190;DHT22;1101;51.056;7.262;2023-07-13T07:14:00;16.80;75.30
2190;DHT22;1101;51.056;7.262;2023-07-13T07:16:28;16.80;75.20
2190;DHT22;1101;51.056;7.262;2023-07-13T07:18:57;16.80;75.20
2190;DHT22;1101;51.056;7.262;2023-07-13T07:21:26;16.80;75.10
2190;DHT22;1101;51.056;7.262;2023-07-13T07:23:54;16.90;75.10
2190;DHT22;1101;51.056;7.262;2023-07-13T07:26:22;16.90;75.00
2190;DHT22;1101;51.056;7.262;2023-07-13T07:28:53;17.00;75.20
2190;DHT22;1101;51.056;7.262;2023-07-13T07:31:41;17.00;75.00
2190;DHT22;1101;51.056;7.262;2023-07-13T07:34:12;17.10;75.10
2190;DHT22;1101;51.056;7.262;2023-07-13T07:36:41;17.20;75.00
2190;DHT22;1101;51.056;7.262;2023-07-13T07:39:12;17.30;75.00
2190;DHT22;1101;51.056;7.262;2023-07-13T07:41:40;17.40;75.70
2190;DHT22;1101;51.056;7.262;2023-07-13T07:44:22;17.50;74.90
2190;DHT22;1101;51.056;7.262;2023-07-13T07:46:50;17.70;75.00
2190;DHT22;1101;51.056;7.262;2023-07-13T07:49:18;17.80;74.90
2190;DHT22;1101;51.056;7.262;2023-07-13T07:51:47;18.00;74.90
2190;DHT22;1101;51.056;7.262;2023-07-13T07:54:15;18.10;74.80
2190;DHT22;1101;51.056;7.262;2023-07-13T07:56:55;18.30;74.80
2190;DHT22;1101;51.056;7.262;2023-07-13T07:59:26;18.40;74.70
2190;DHT22;1101;51.056;7.262;2023-07-13T08:01:57;18.40;74.50
2190;DHT22;1101;51.056;7.262;2023-07-13T08:04:27;18.50;74.50
2190;DHT22;1101;51.056;7.262;2023-07-13T08:07:00;18.60;74.50
2190;DHT22;1101;51.056;7.262;2023-07-13T08:09:29;18.70;74.50
2190;DHT22;1101;51.056;7.262;2023-07-13T08:11:57;18.80;74.50
2190;DHT22;1101;51.056;7.262;2023-07-13T08:14:28;19.00;74.60
2190;DHT22;1101;51.056;7.262;2023-07-13T08:17:08;19.20;74.40
2190;DHT22;1101;51.056;7.262;2023-07-13T08:19:36;19.40;74.30
2190;DHT22;1101;51.056;7.262;2023-07-13T08:22:07;19.60;74.30
2190;DHT22;1101;51.056;7.262;2023-07-13T08:24:35;19.70;74.00
2190;DHT22;1101;51.056;7.262;2023-07-13T08:27:03;19.70;73.80
2190;DHT22;1101;51.056;7.262;2023-07-13T08:29:31;19.80;73.90
2190;DHT22;1101;51.056;7.262;2023-07-13T08:31:59;19.90;73.80
2190;DHT22;1101;51.056;7.262;2023-07-13T08:34:27;19.80;73.70
2190;DHT22;1101;51.056;7.262;2023-07-13T08:36:55;19.90;73.90
2190;DHT22;1101;51.056;7.262;2023-07-13T08:39:24;20.10;73.90
2190;DHT22;1101;51.056;7.262;2023-07-13T08:42:00;20.20;73.90
2190;DHT22;1101;51.056;7.262;2023-07-13T08:44:38;20.40;73.80
2190;DHT22;1101;51.056;7.262;2023-07-13T08:47:09;20.40;73.40
2190;DHT22;1101;51.056;7.262;2023-07-13T08:49:38;20.40;73.30
2190;DHT22;1101;51.056;7.262;2023-07-13T08:52:10;20.50;73.60
2190;DHT22;1101;51.056;7.262;2023-07-13T08:54:44;20.70;73.60
2190;DHT22;1101;51.056;7.262;2023-07-13T08:57:15;20.90;73.40
2190;DHT22;1101;51.056;7.262;2023-07-13T08:59:43;21.10;73.20
2190;DHT22;1101;51.056;7.262;2023-07-13T09:02:23;21.20;73.00
2190;DHT22;1101;51.056;7.262;2023-07-13T09:04:56;21.20;72.80
2190;DHT22;1101;51.056;7.262;2023-07-13T09:07:35;21.30;72.90
2190;DHT22;1101;51.056;7.262;2023-07-13T09:10:15;21.20;72.70
2190;DHT22;1101;51.056;7.262;2023-07-13T09:12:53;21.10;72.80
2190;DHT22;1101;51.056;7.262;2023-07-13T09:15:28;21.20;72.90
2190;DHT22;1101;51.056;7.262;2023-07-13T09:18:01;21.30;72.90
2190;DHT22;1101;51.056;7.262;2023-07-13T09:20:34;21.40;72.80
2190;DHT22;1101;51.056;7.262;2023-07-13T09:23:04;21.40;72.60
2190;DHT22;1101;51.056;7.262;2023-07-13T09:25:36;21.40;72.60
2190;DHT22;1101;51.056;7.262;2023-07-13T09:28:11;21.40;72.60
2190;DHT22;1101;51.056;7.262;2023-07-13T09:30:46;21.50;72.60
2190;DHT22;1101;51.056;7.262;2023-07-13T09:33:20;21.50;72.50
2190;DHT22;1101;51.056;7.262;2023-07-13T09:35:49;21.50;72.40
2190;DHT22;1101;51.056;7.262;2023-07-13T09:38:18;21.50;72.50
2190;DHT22;1101;51.056;7.262;2023-07-13T09:40:59;21.50;73.30
2190;DHT22;1101;51.056;7.262;2023-07-13T09:43:28;21.60;72.50
2190;DHT22;1101;51.056;7.262;2023-07-13T09:45:56;21.70;72.20
2190;DHT22;1101;51.056;7.262;2023-07-13T09:48:24;21.80;72.20
2190;DHT22;1101;51.056;7.262;2023-07-13T09:50:55;21.80;72.00
2190;DHT22;1101;51.056;7.262;2023-07-13T09:53:23;21.80;72.10
2190;DHT22;1101;51.056;7.262;2023-07-13T09:55:52;22.00;72.20
2190;DHT22;1101;51.056;7.262;2023-07-13T09:58:23;22.10;72.00
2190;DHT22;1101;51.056;7.262;2023-07-13T10:00:57;22.30;72.00
2190;DHT22;1101;51.056;7.262;2023-07-13T10:03:28;22.50;71.80
2190;DHT22;1101;51.056;7.262;2023-07-13T10:06:03;22.70;71.60
2190;DHT22;1101;51.056;7.262;2023-07-13T10:08:35;22.80;71.50
2190;DHT22;1101;51.056;7.262;2023-07-13T10:11:12;23.00;71.40
2190;DHT22;1101;51.056;7.262;2023-07-13T10:13:42;23.10;71.20
2190;DHT22;1101;51.056;7.262;2023-07-13T10:16:12;23.20;71.20
2190;DHT22;1101;51.056;7.262;2023-07-13T10:18:43;23.30;71.00
2190;DHT22;1101;51.056;7.262;2023-07-13T10:21:15;23.40;71.60
2190;DHT22;1101;51.056;7.262;2023-07-13T10:23:50;23.40;70.60
2190;DHT22;1101;51.056;7.262;2023-07-13T10:26:23;23.50;70.30
2190;DHT22;1101;51.056;7.262;2023-07-13T10:28:56;23.50;70.50
2190;DHT22;1101;51.056;7.262;2023-07-13T10:31:24;23.60;70.60
2190;DHT22;1101;51.056;7.262;2023-07-13T10:33:53;23.60;70.30
2190;DHT22;1101;51.056;7.262;2023-07-13T10:36:29;23.70;70.10
2190;DHT22;1101;51.056;7.262;2023-07-13T10:39:02;23.60;69.60
2190;DHT22;1101;51.056;7.262;2023-07-13T10:41:35;23.50;69.60
2190;DHT22;1101;51.056;7.262;2023-07-13T10:44:10;23.40;70.20
2190;DHT22;1101;51.056;7.262;2023-07-13T10:46:41;23.30;69.90
2190;DHT22;1101;51.056;7.262;2023-07-13T10:49:12;23.20;69.70
2190;DHT22;1101;51.056;7.262;2023-07-13T10:51:40;23.10;69.80
2190;DHT22;1101;51.056;7.262;2023-07-13T10:54:16;23.00;70.20
2190;DHT22;1101;51.056;7.262;2023-07-13T10:56:50;23.00;70.20
2190;DHT22;1101;51.056;7.262;2023-07-13T10:59:24;23.00;70.50
2190;DHT22;1101;51.056;7.262;2023-07-13T11:01:56;23.00;70.60
2190;DHT22;1101;51.056;7.262;2023-07-13T11:04:26;23.00;69.80
2190;DHT22;1101;51.056;7.262;2023-07-13T11:06:59;22.90;69.40
2190;DHT22;1101;51.056;7.262;2023-07-13T11:09:33;22.80;69.80
2190;DHT22;1101;51.056;7.262;2023-07-13T11:12:18;22.70;70.00
2190;DHT22;1101;51.056;7.262;2023-07-13T11:15:06;22.70;70.20
2190;DHT22;1101;51.056;7.262;2023-07-13T11:17:48;22.80;70.00
2190;DHT22;1101;51.056;7.262;2023-07-13T11:20:31;22.70;70.00
2190;DHT22;1101;51.056;7.262;2023-07-13T11:23:20;22.80;70.50
2190;DHT22;1101;51.056;7.262;2023-07-13T11:25:48;22.90;70.40
2190;DHT22;1101;51.056;7.262;2023-07-13T11:28:22;23.00;70.30
2190;DHT22;1101;51.056;7.262;2023-07-13T11:31:03;23.00;69.50
2190;DHT22;1101;51.056;7.262;2023-07-13T11:33:58;22.90;69.60
2190;DHT22;1101;51.056;7.262;2023-07-13T11:36:32;22.90;69.80
2190;DHT22;1101;51.056;7.262;2023-07-13T11:39:11;22.90;69.60
2190;DHT22;1101;51.056;7.262;2023-07-13T11:41:44;22.80;69.40
2190;DHT22;1101;51.056;7.262;2023-07-13T11:44:19;22.80;69.90
2190;DHT22;1101;51.056;7.262;2023-07-13T11:46:49;22.80;70.00
2190;DHT22;1101;51.056;7.262;2023-07-13T11:49:22;22.80;69.50
2190;DHT22;1101;51.056;7.262;2023-07-13T11:51:51;22.80;69.20
2190;DHT22;1101;51.056;7.262;2023-07-13T11:54:26;22.70;69.30
2190;DHT22;1101;51.056;7.262;2023-07-13T11:56:57;22.70;69.20
2190;DHT22;1101;51.056;7.262;2023-07-13T11:59:29;22.60;69.50
2190;DHT22;1101;51.056;7.262;2023-07-13T12:01:58;22.50;69.90
2190;DHT22;1101;51.056;7.262;2023-07-13T12:04:28;22.60;70.10
2190;DHT22;1101;51.056;7.262;2023-07-13T12:07:03;22.60;69.70
2190;DHT22;1101;51.056;7.262;2023-07-13T12:09:33;22.70;69.80
2190;DHT22;1101;51.056;7.262;2023-07-13T12:12:03;22.80;69.60
2190;DHT22;1101;51.056;7.262;2023-07-13T12:14:35;22.80;69.30
2190;DHT22;1101;51.056;7.262;2023-07-13T12:17:09;22.80;69.20
2190;DHT22;1101;51.056;7.262;2023-07-13T12:19:39;22.90;69.50
2190;DHT22;1101;51.056;7.262;2023-07-13T12:22:11;22.90;68.80
2190;DHT22;1101;51.056;7.262;2023-07-13T12:24:40;22.90;68.40
2190;DHT22;1101;51.056;7.262;2023-07-13T12:27:19;22.90;69.00
2190;DHT22;1101;51.056;7.262;2023-07-13T12:29:52;22.90;69.10
2190;DHT22;1101;51.056;7.262;2023-07-13T12:32:21;23.00;69.20
2190;DHT22;1101;51.056;7.262;2023-07-13T12:34:54;23.10;69.90
2190;DHT22;1101;51.056;7.262;2023-07-13T12:37:24;23.20;69.00
2190;DHT22;1101;51.056;7.262;2023-07-13T12:39:52;23.30;69.10
2190;DHT22;1101;51.056;7.262;2023-07-13T12:42:23;23.30;68.90
2190;DHT22;1101;51.056;7.262;2023-07-13T12:44:58;23.30;68.70
2190;DHT22;1101;51.056;7.262;2023-07-13T12:47:27;23.30;68.70
2190;DHT22;1101;51.056;7.262;2023-07-13T12:49:57;23.30;68.60
2190;DHT22;1101;51.056;7.262;2023-07-13T12:52:29;23.30;68.70
2190;DHT22;1101;51.056;7.262;2023-07-13T12:55:04;23.30;68.50
2190;DHT22;1101;51.056;7.262;2023-07-13T12:57:39;23.40;68.80
2190;DHT22;1101;51.056;7.262;2023-07-13T13:00:21;23.60;68.70
2190;DHT22;1101;51.056;7.262;2023-07-13T13:02:53;23.70;68.30
2190;DHT22;1101;51.056;7.262;2023-07-13T13:05:41;23.80;68.10
2190;DHT22;1101;51.056;7.262;2023-07-13T13:08:11;23.70;67.90
2190;DHT22;1101;51.056;7.262;2023-07-13T13:10:39;23.60;67.70
2190;DHT22;1101;51.056;7.262;2023-07-13T13:13:07;23.50;67.80
2190;DHT22;1101;51.056;7.262;2023-07-13T13:15:37;23.60;68.30
2190;DHT22;1101;51.056;7.262;2023-07-13T13:18:16;23.50;68.10
2190;DHT22;1101;51.056;7.262;2023-07-13T13:20:45;23.60;68.00
2190;DHT22;1101;51.056;7.262;2023-07-13T13:23:13;23.50;67.60
2190;DHT22;1101;51.056;7.262;2023-07-13T13:25:44;23.50;67.90
2190;DHT22;1101;51.056;7.262;2023-07-13T13:28:14;23.60;68.00
2190;DHT22;1101;51.056;7.262;2023-07-13T13:30:46;23.50;67.50
2190;DHT22;1101;51.056;7.262;2023-07-13T13:33:16;23.40;67.10
2190;DHT22;1101;51.056;7.262;2023-07-13T13:35:45;23.30;67.20
2190;DHT22;1101;51.056;7.262;2023-07-13T13:38:14;23.30;67.60
2190;DHT22;1101;51.056;7.262;2023-07-13T13:40:43;23.20;67.60
2190;DHT22;1101;51.056;7.262;2023-07-13T13:43:14;23.20;68.00
2190;DHT22;1101;51.056;7.262;2023-07-13T13:45:44;23.20;68.10
2190;DHT22;1101;51.056;7.262;2023-07-13T13:48:15;23.30;68.00
2190;DHT22;1101;51.056;7.262;2023-07-13T13:50:44;23.30;67.50
2190;DHT22;1101;51.056;7.262;2023-07-13T13:53:12;23.30;67.60
2190;DHT22;1101;51.056;7.262;2023-07-13T13:55:40;23.30;67.80
2190;DHT22;1101;51.056;7.262;2023-07-13T13:58:09;23.50;68.10
2190;DHT22;1101;51.056;7.262;2023-07-13T14:00:38;23.70;67.80
2190;DHT22;1101;51.056;7.262;2023-07-13T14:03:14;23.70;67.20
2190;DHT22;1101;51.056;7.262;2023-07-13T14:05:43;23.70;68.10
2190;DHT22;1101;51.056;7.262;2023-07-13T14:08:13;23.80;67.40
2190;DHT22;1101;51.056;7.262;2023-07-13T14:10:42;23.80;67.50
2190;DHT22;1101;51.056;7.262;2023-07-13T14:13:16;24.00;67.40
2190;DHT22;1101;51.056;7.262;2023-07-13T14:15:45;24.10;66.80
2190;DHT22;1101;51.056;7.262;2023-07-13T14:18:15;24.20;66.70
2190;DHT22;1101;51.056;7.262;2023-07-13T14:20:45;24.20;66.40
2190;DHT22;1101;51.056;7.262;2023-07-13T14:23:14;24.20;65.80
2190;DHT22;1101;51.056;7.262;2023-07-13T14:25:43;24.10;66.00
2190;DHT22;1101;51.056;7.262;2023-07-13T14:28:19;24.00;66.00
2190;DHT22;1101;51.056;7.262;2023-07-13T14:30:48;24.00;66.20
2190;DHT22;1101;51.056;7.262;2023-07-13T14:33:17;24.00;66.30
2190;DHT22;1101;51.056;7.262;2023-07-13T14:35:46;24.00;66.20
2190;DHT22;1101;51.056;7.262;2023-07-13T14:38:18;24.00;66.40
2190;DHT22;1101;51.056;7.262;2023-07-13T14:40:46;24.10;66.50
2190;DHT22;1101;51.056;7.262;2023-07-13T14:43:16;24.10;66.20
2190;DHT22;1101;51.056;7.262;2023-07-13T14:45:46;24.10;66.30
2190;DHT22;1101;51.056;7.262;2023-07-13T14:48:20;24.00;65.90
2190;DHT22;1101;51.056;7.262;2023-07-13T14:50:51;24.00;65.80
2190;DHT22;1101;51.056;7.262;2023-07-13T14:53:20;24.00;66.10
2190;DHT22;1101;51.056;7.262;2023-07-13T14:55:49;23.90;65.70
2190;DHT22;1101;51.056;7.262;2023-07-13T14:58:17;23.90;65.60
2190;DHT22;1101;51.056;7.262;2023-07-13T15:00:45;23.90;65.80
2190;DHT22;1101;51.056;7.262;2023-07-13T15:03:20;23.80;65.80
2190;DHT22;1101;51.056;7.262;2023-07-13T15:05:49;23.90;66.30
2190;DHT22;1101;51.056;7.262;2023-07-13T15:08:17;23.90;66.00
2190;DHT22;1101;51.056;7.262;2023-07-13T15:10:45;23.90;65.50
2190;DHT22;1101;51.056;7.262;2023-07-13T15:13:15;23.90;65.10
2190;DHT22;1101;51.056;7.262;2023-07-13T15:15:45;23.80;64.40
2190;DHT22;1101;51.056;7.262;2023-07-13T15:18:14;23.80;65.10
2190;DHT22;1101;51.056;7.262;2023-07-13T15:20:45;23.70;65.10
2190;DHT22;1101;51.056;7.262;2023-07-13T15:23:15;23.60;65.20
2190;DHT22;1101;51.056;7.262;2023-07-13T15:25:44;23.60;64.70
2190;DHT22;1101;51.056;7.262;2023-07-13T15:28:12;23.50;65.30
2190;DHT22;1101;51.056;7.262;2023-07-13T15:30:42;23.50;65.30
2190;DHT22;1101;51.056;7.262;2023-07-13T15:33:13;23.60;65.60
2190;DHT22;1101;51.056;7.262;2023-07-13T15:35:45;23.70;65.90
2190;DHT22;1101;51.056;7.262;2023-07-13T15:38:18;23.90;65.80
2190;DHT22;1101;51.056;7.262;2023-07-13T15:40:47;24.00;65.80
2190;DHT22;1101;51.056;7.262;2023-07-13T15:43:16;24.20;65.70
2190;DHT22;1101;51.056;7.262;2023-07-13T15:45:45;24.30;65.20
2190;DHT22;1101;51.056;7.262;2023-07-13T15:48:16;24.30;65.30
2190;DHT22;1101;51.056;7.262;2023-07-13T15:50:48;24.40;64.80
2190;DHT22;1101;51.056;7.262;2023-07-13T15:53:19;24.30;63.40
2190;DHT22;1101;51.056;7.262;2023-07-13T15:55:47;24.20;64.10
2190;DHT22;1101;51.056;7.262;2023-07-13T15:58:16;24.00;63.90
2190;DHT22;1101;51.056;7.262;2023-07-13T16:00:44;23.90;63.70
2190;DHT22;1101;51.056;7.262;2023-07-13T16:03:12;23.70;63.90
2190;DHT22;1101;51.056;7.262;2023-07-13T16:05:41;23.60;64.60
2190;DHT22;1101;51.056;7.262;2023-07-13T16:08:19;23.40;64.80
2190;DHT22;1101;51.056;7.262;2023-07-13T16:10:48;23.20;65.10
2190;DHT22;1101;51.056;7.262;2023-07-13T16:13:18;23.00;66.30
2190;DHT22;1101;51.056;7.262;2023-07-13T16:15:47;22.90;65.60
2190;DHT22;1101;51.056;7.262;2023-07-13T16:18:15;22.70;65.90
2190;DHT22;1101;51.056;7.262;2023-07-13T16:20:44;22.60;66.00
2190;DHT22;1101;51.056;7.262;2023-07-13T16:23:14;22.40;66.20